Terminal Aerodrome Forecast
Issued by NWS

Current Version | Previous Version | Text Only | Print | Product List | Glossary On
Versions: 1 2 3 4 5 6 7 8 9 10 11 12 13
518
FTAK31 PAJN 282340
TAFAPG
TAF
PAPG 282340Z 2900/2924 VRB06KT P6SM VCSH SCT025 BKN035 BKN050
     FM290200 07003KT P6SM BKN050
     FM290900 VRB03KT 3SM BR SCT002 SCT060
     FM291700 06006KT P6SM FEW002 FEW200
     FM292100 05004KT P6SM BKN200
      AMD LTD TO CLD VIS AND WIND 2906/2915=

USA.gov is the U.S. government's official web portal to all federal, state and local government web resources and services.